sensor_id;sensor_type;location;lat;lon;timestamp;temperature;humidity
20566;DHT22;10441;50.884;12.064;2023-02-28T00:01:21;-0.50;99.90
20566;DHT22;10441;50.884;12.064;2023-02-28T00:03:48;-0.40;99.90
20566;DHT22;10441;50.884;12.064;2023-02-28T00:06:15;-0.40;99.90
20566;DHT22;10441;50.884;12.064;2023-02-28T00:08:42;-0.40;99.90
20566;DHT22;10441;50.884;12.064;2023-02-28T00:11:10;-0.50;99.90
20566;DHT22;10441;50.884;12.064;2023-02-28T00:13:39;-0.50;99.90
20566;DHT22;10441;50.884;12.064;2023-02-28T00:16:07;-0.50;99.90
20566;DHT22;10441;50.884;12.064;2023-02-28T00:18:35;-0.60;99.90
20566;DHT22;10441;50.884;12.064;2023-02-28T00:21:02;-0.50;99.90
20566;DHT22;10441;50.884;12.064;2023-02-28T00:23:28;-0.50;99.90
20566;DHT22;10441;50.884;12.064;2023-02-28T00:25:56;-0.60;99.90
20566;DHT22;10441;50.884;12.064;2023-02-28T00:28:23;-0.50;99.90
20566;DHT22;10441;50.884;12.064;2023-02-28T00:30:51;-0.50;99.90
20566;DHT22;10441;50.884;12.064;2023-02-28T00:33:18;-0.60;99.90
20566;DHT22;10441;50.884;12.064;2023-02-28T00:35:45;-0.60;99.90
20566;DHT22;10441;50.884;12.064;2023-02-28T00:38:14;-0.60;99.90
20566;DHT22;10441;50.884;12.064;2023-02-28T00:40:40;-0.60;99.90
20566;DHT22;10441;50.884;12.064;2023-02-28T00:43:07;-0.50;99.90
20566;DHT22;10441;50.884;12.064;2023-02-28T00:45:34;-0.50;99.90
20566;DHT22;10441;50.884;12.064;2023-02-28T00:48:03;-0.50;99.90
20566;DHT22;10441;50.884;12.064;2023-02-28T00:50:30;-0.60;99.90
20566;DHT22;10441;50.884;12.064;2023-02-28T00:52:56;-0.70;99.90
20566;DHT22;10441;50.884;12.064;2023-02-28T00:55:24;-0.70;99.90
20566;DHT22;10441;50.884;12.064;2023-02-28T00:57:50;-0.50;99.90
20566;DHT22;10441;50.884;12.064;2023-02-28T01:00:17;-0.60;99.90
20566;DHT22;10441;50.884;12.064;2023-02-28T01:02:44;-0.50;99.90
20566;DHT22;10441;50.884;12.064;2023-02-28T01:05:12;-0.60;99.90
20566;DHT22;10441;50.884;12.064;2023-02-28T01:07:39;-0.70;99.90
20566;DHT22;10441;50.884;12.064;2023-02-28T01:10:06;-0.70;99.90
20566;DHT22;10441;50.884;12.064;2023-02-28T01:12:34;-0.60;99.90
20566;DHT22;10441;50.884;12.064;2023-02-28T01:15:00;-0.60;99.90
20566;DHT22;10441;50.884;12.064;2023-02-28T01:17:27;-0.70;99.90
20566;DHT22;10441;50.884;12.064;2023-02-28T01:19:54;-0.70;99.90
20566;DHT22;10441;50.884;12.064;2023-02-28T01:22:23;-0.80;99.90
20566;DHT22;10441;50.884;12.064;2023-02-28T01:24:50;-0.90;99.90
20566;DHT22;10441;50.884;12.064;2023-02-28T01:27:17;-0.90;99.90
20566;DHT22;10441;50.884;12.064;2023-02-28T01:29:44;-1.00;99.90
20566;DHT22;10441;50.884;12.064;2023-02-28T01:32:11;-1.00;99.90
20566;DHT22;10441;50.884;12.064;2023-02-28T01:34:38;-1.00;99.90
20566;DHT22;10441;50.884;12.064;2023-02-28T01:37:04;-1.00;99.90
20566;DHT22;10441;50.884;12.064;2023-02-28T01:39:33;-1.00;99.90
20566;DHT22;10441;50.884;12.064;2023-02-28T01:42:00;-1.00;99.90
20566;DHT22;10441;50.884;12.064;2023-02-28T01:47:12;-0.90;99.90
20566;DHT22;10441;50.884;12.064;2023-02-28T01:49:39;-1.00;99.90
20566;DHT22;10441;50.884;12.064;2023-02-28T01:52:06;-1.00;99.90
20566;DHT22;10441;50.884;12.064;2023-02-28T01:54:35;-1.00;99.90
20566;DHT22;10441;50.884;12.064;2023-02-28T01:57:03;-0.90;99.90
20566;DHT22;10441;50.884;12.064;2023-02-28T01:59:31;-1.00;99.90
20566;DHT22;10441;50.884;12.064;2023-02-28T02:01:59;-1.00;99.90
20566;DHT22;10441;50.884;12.064;2023-02-28T02:04:27;-1.00;99.90
20566;DHT22;10441;50.884;12.064;2023-02-28T02:06:58;-1.00;99.90
20566;DHT22;10441;50.884;12.064;2023-02-28T02:09:25;-1.00;99.90
20566;DHT22;10441;50.884;12.064;2023-02-28T02:11:53;-1.00;99.90
20566;DHT22;10441;50.884;12.064;2023-02-28T02:14:26;-0.90;99.90
20566;DHT22;10441;50.884;12.064;2023-02-28T02:17:04;-1.00;99.90
20566;DHT22;10441;50.884;12.064;2023-02-28T02:22:21;-1.20;99.90
20566;DHT22;10441;50.884;12.064;2023-02-28T02:27:42;-1.20;99.90
20566;DHT22;10441;50.884;12.064;2023-02-28T02:30:27;-1.20;99.90
20566;DHT22;10441;50.884;12.064;2023-02-28T02:35:45;-1.10;99.90
20566;DHT22;10441;50.884;12.064;2023-02-28T02:38:16;-1.20;99.90
20566;DHT22;10441;50.884;12.064;2023-02-28T02:40:46;-1.20;99.90
20566;DHT22;10441;50.884;12.064;2023-02-28T02:43:16;-1.20;99.90
20566;DHT22;10441;50.884;12.064;2023-02-28T02:45:46;-1.30;99.90
20566;DHT22;10441;50.884;12.064;2023-02-28T02:48:15;-1.20;99.90
20566;DHT22;10441;50.884;12.064;2023-02-28T02:50:45;-1.10;99.90
20566;DHT22;10441;50.884;12.064;2023-02-28T02:53:13;-1.10;99.90
20566;DHT22;10441;50.884;12.064;2023-02-28T02:55:41;-1.20;99.90
20566;DHT22;10441;50.884;12.064;2023-02-28T02:58:10;-1.20;99.90
20566;DHT22;10441;50.884;12.064;2023-02-28T03:00:39;-1.10;99.90
20566;DHT22;10441;50.884;12.064;2023-02-28T03:03:08;-1.10;99.90
20566;DHT22;10441;50.884;12.064;2023-02-28T03:05:39;-1.20;99.90
20566;DHT22;10441;50.884;12.064;2023-02-28T03:08:09;-1.10;99.90
20566;DHT22;10441;50.884;12.064;2023-02-28T03:10:37;-1.10;99.90
20566;DHT22;10441;50.884;12.064;2023-02-28T03:13:11;-1.10;99.90
20566;DHT22;10441;50.884;12.064;2023-02-28T03:15:42;-1.20;99.90
20566;DHT22;10441;50.884;12.064;2023-02-28T03:18:15;-1.20;99.90
20566;DHT22;10441;50.884;12.064;2023-02-28T03:20:46;-1.10;99.90
20566;DHT22;10441;50.884;12.064;2023-02-28T03:23:19;-1.00;99.90
20566;DHT22;10441;50.884;12.064;2023-02-28T03:25:52;-1.10;99.90
20566;DHT22;10441;50.884;12.064;2023-02-28T03:28:22;-1.10;99.90
20566;DHT22;10441;50.884;12.064;2023-02-28T03:30:52;-1.10;99.90
20566;DHT22;10441;50.884;12.064;2023-02-28T03:33:21;-1.10;99.90
20566;DHT22;10441;50.884;12.064;2023-02-28T03:35:51;-1.00;99.90
20566;DHT22;10441;50.884;12.064;2023-02-28T03:38:22;-1.10;99.90
20566;DHT22;10441;50.884;12.064;2023-02-28T03:40:51;-1.10;99.90
20566;DHT22;10441;50.884;12.064;2023-02-28T03:43:22;-1.10;99.90
20566;DHT22;10441;50.884;12.064;2023-02-28T03:45:50;-1.10;99.90
20566;DHT22;10441;50.884;12.064;2023-02-28T03:48:18;-1.10;99.90
20566;DHT22;10441;50.884;12.064;2023-02-28T03:50:47;-1.20;99.90
20566;DHT22;10441;50.884;12.064;2023-02-28T03:53:16;-1.20;99.90
20566;DHT22;10441;50.884;12.064;2023-02-28T03:55:48;-1.30;99.90
20566;DHT22;10441;50.884;12.064;2023-02-28T03:58:17;-1.30;99.90
20566;DHT22;10441;50.884;12.064;2023-02-28T04:00:48;-1.40;99.90
20566;DHT22;10441;50.884;12.064;2023-02-28T04:03:15;-1.40;99.90
20566;DHT22;10441;50.884;12.064;2023-02-28T04:05:46;-1.40;99.90
20566;DHT22;10441;50.884;12.064;2023-02-28T04:08:15;-1.60;99.90
20566;DHT22;10441;50.884;12.064;2023-02-28T04:10:42;-1.70;99.90
20566;DHT22;10441;50.884;12.064;2023-02-28T04:13:12;-1.80;99.90
20566;DHT22;10441;50.884;12.064;2023-02-28T04:15:39;-1.80;99.90
20566;DHT22;10441;50.884;12.064;2023-02-28T04:18:06;-1.80;99.90
20566;DHT22;10441;50.884;12.064;2023-02-28T04:20:33;-1.90;99.90
20566;DHT22;10441;50.884;12.064;2023-02-28T04:23:01;-2.00;99.90
20566;DHT22;10441;50.884;12.064;2023-02-28T04:25:29;-1.90;99.90
20566;DHT22;10441;50.884;12.064;2023-02-28T04:27:59;-2.00;99.90
20566;DHT22;10441;50.884;12.064;2023-02-28T04:30:29;-2.10;99.90
20566;DHT22;10441;50.884;12.064;2023-02-28T04:32:59;-2.10;99.90
20566;DHT22;10441;50.884;12.064;2023-02-28T04:35:27;-2.10;99.90
20566;DHT22;10441;50.884;12.064;2023-02-28T04:37:55;-2.10;99.90
20566;DHT22;10441;50.884;12.064;2023-02-28T04:40:23;-2.10;99.90
20566;DHT22;10441;50.884;12.064;2023-02-28T04:42:51;-2.30;99.90
20566;DHT22;10441;50.884;12.064;2023-02-28T04:45:19;-2.20;99.90
20566;DHT22;10441;50.884;12.064;2023-02-28T04:47:49;-2.10;99.90
20566;DHT22;10441;50.884;12.064;2023-02-28T04:50:17;-2.10;99.90
20566;DHT22;10441;50.884;12.064;2023-02-28T04:52:45;-2.30;99.90
20566;DHT22;10441;50.884;12.064;2023-02-28T04:55:11;-2.40;99.90
20566;DHT22;10441;50.884;12.064;2023-02-28T04:57:39;-2.40;99.90
20566;DHT22;10441;50.884;12.064;2023-02-28T05:00:08;-2.30;99.90
20566;DHT22;10441;50.884;12.064;2023-02-28T05:02:37;-2.10;99.90
20566;DHT22;10441;50.884;12.064;2023-02-28T05:05:06;-2.10;99.90
20566;DHT22;10441;50.884;12.064;2023-02-28T05:07:34;-2.10;99.90
20566;DHT22;10441;50.884;12.064;2023-02-28T05:10:02;-2.30;99.90
20566;DHT22;10441;50.884;12.064;2023-02-28T05:12:30;-2.50;99.90
20566;DHT22;10441;50.884;12.064;2023-02-28T05:14:58;-2.60;99.90
20566;DHT22;10441;50.884;12.064;2023-02-28T05:17:27;-2.70;99.90
20566;DHT22;10441;50.884;12.064;2023-02-28T05:19:53;-2.80;99.90
20566;DHT22;10441;50.884;12.064;2023-02-28T05:22:22;-2.80;99.90
20566;DHT22;10441;50.884;12.064;2023-02-28T05:24:49;-2.80;99.90
20566;DHT22;10441;50.884;12.064;2023-02-28T05:27:17;-2.80;99.90
20566;DHT22;10441;50.884;12.064;2023-02-28T05:29:45;-2.80;99.90
20566;DHT22;10441;50.884;12.064;2023-02-28T05:32:12;-2.80;99.90
20566;DHT22;10441;50.884;12.064;2023-02-28T05:34:43;-3.00;99.90
20566;DHT22;10441;50.884;12.064;2023-02-28T05:37:12;-3.00;99.90
20566;DHT22;10441;50.884;12.064;2023-02-28T05:39:42;-2.90;99.90
20566;DHT22;10441;50.884;12.064;2023-02-28T05:42:09;-2.80;99.90
20566;DHT22;10441;50.884;12.064;2023-02-28T05:44:36;-2.90;99.90
20566;DHT22;10441;50.884;12.064;2023-02-28T05:47:04;-2.90;99.90
20566;DHT22;10441;50.884;12.064;2023-02-28T05:49:31;-3.00;99.90
20566;DHT22;10441;50.884;12.064;2023-02-28T05:51:58;-3.00;99.90
20566;DHT22;10441;50.884;12.064;2023-02-28T05:54:25;-3.00;99.90
20566;DHT22;10441;50.884;12.064;2023-02-28T05:56:53;-2.90;99.90
20566;DHT22;10441;50.884;12.064;2023-02-28T05:59:20;-3.00;99.90
20566;DHT22;10441;50.884;12.064;2023-02-28T06:01:47;-3.10;99.90
20566;DHT22;10441;50.884;12.064;2023-02-28T06:04:15;-2.90;99.90
20566;DHT22;10441;50.884;12.064;2023-02-28T06:06:44;-2.90;99.90
20566;DHT22;10441;50.884;12.064;2023-02-28T06:09:11;-2.80;99.90
20566;DHT22;10441;50.884;12.064;2023-02-28T06:11:38;-2.70;99.90
20566;DHT22;10441;50.884;12.064;2023-02-28T06:14:07;-2.50;99.90
20566;DHT22;10441;50.884;12.064;2023-02-28T06:16:34;-2.50;99.90
20566;DHT22;10441;50.884;12.064;2023-02-28T06:19:02;-2.30;99.90
20566;DHT22;10441;50.884;12.064;2023-02-28T06:21:29;-2.20;99.90
20566;DHT22;10441;50.884;12.064;2023-02-28T06:23:56;-2.00;99.90
20566;DHT22;10441;50.884;12.064;2023-02-28T06:26:23;-1.90;99.90
20566;DHT22;10441;50.884;12.064;2023-02-28T06:28:52;-2.00;99.90
20566;DHT22;10441;50.884;12.064;2023-02-28T06:31:24;-2.00;99.90
20566;DHT22;10441;50.884;12.064;2023-02-28T06:33:53;-1.70;99.90
20566;DHT22;10441;50.884;12.064;2023-02-28T06:36:21;-1.50;99.90
20566;DHT22;10441;50.884;12.064;2023-02-28T06:38:49;-1.50;99.90
20566;DHT22;10441;50.884;12.064;2023-02-28T06:41:21;-1.40;99.90
20566;DHT22;10441;50.884;12.064;2023-02-28T06:43:48;-1.30;99.90
20566;DHT22;10441;50.884;12.064;2023-02-28T06:46:18;-1.20;99.90
20566;DHT22;10441;50.884;12.064;2023-02-28T06:48:49;-1.10;99.90
20566;DHT22;10441;50.884;12.064;2023-02-28T06:51:20;-1.00;99.90
20566;DHT22;10441;50.884;12.064;2023-02-28T06:53:47;-0.80;99.90
20566;DHT22;10441;50.884;12.064;2023-02-28T06:56:16;-0.70;99.90
20566;DHT22;10441;50.884;12.064;2023-02-28T06:58:45;-0.60;99.90
20566;DHT22;10441;50.884;12.064;2023-02-28T07:01:13;-0.50;99.90
20566;DHT22;10441;50.884;12.064;2023-02-28T07:03:41;-0.70;99.90
20566;DHT22;10441;50.884;12.064;2023-02-28T07:06:11;-0.70;99.90
20566;DHT22;10441;50.884;12.064;2023-02-28T07:08:41;-0.60;99.90
20566;DHT22;10441;50.884;12.064;2023-02-28T07:11:09;-0.40;99.90
20566;DHT22;10441;50.884;12.064;2023-02-28T07:13:37;-0.20;99.90
20566;DHT22;10441;50.884;12.064;2023-02-28T07:16:06;-0.40;99.90
20566;DHT22;10441;50.884;12.064;2023-02-28T07:18:38;0.00;99.90
20566;DHT22;10441;50.884;12.064;2023-02-28T07:21:08;-0.10;99.90
20566;DHT22;10441;50.884;12.064;2023-02-28T07:23:39;-0.10;99.90
20566;DHT22;10441;50.884;12.064;2023-02-28T07:26:07;-0.30;99.90
20566;DHT22;10441;50.884;12.064;2023-02-28T07:28:38;-0.20;99.90
20566;DHT22;10441;50.884;12.064;2023-02-28T07:31:05;0.00;99.90
20566;DHT22;10441;50.884;12.064;2023-02-28T07:33:37;-0.10;99.90
20566;DHT22;10441;50.884;12.064;2023-02-28T07:36:06;-0.10;99.90
20566;DHT22;10441;50.884;12.064;2023-02-28T07:38:35;-0.20;99.90
20566;DHT22;10441;50.884;12.064;2023-02-28T07:41:05;0.00;99.90
20566;DHT22;10441;50.884;12.064;2023-02-28T07:43:35;0.70;99.90
20566;DHT22;10441;50.884;12.064;2023-02-28T07:46:03;0.90;99.90
20566;DHT22;10441;50.884;12.064;2023-02-28T07:48:33;1.30;99.90
20566;DHT22;10441;50.884;12.064;2023-02-28T07:51:15;1.00;99.90
20566;DHT22;10441;50.884;12.064;2023-02-28T07:54:02;1.00;99.90
20566;DHT22;10441;50.884;12.064;2023-02-28T07:56:47;1.20;99.90
20566;DHT22;10441;50.884;12.064;2023-02-28T07:59:13;1.20;99.90
20566;DHT22;10441;50.884;12.064;2023-02-28T08:01:40;1.20;99.90
20566;DHT22;10441;50.884;12.064;2023-02-28T08:04:09;1.10;99.90
20566;DHT22;10441;50.884;12.064;2023-02-28T08:06:36;1.20;99.90
20566;DHT22;10441;50.884;12.064;2023-02-28T08:09:03;1.60;99.90
20566;DHT22;10441;50.884;12.064;2023-02-28T08:11:30;1.50;99.90
20566;DHT22;10441;50.884;12.064;2023-02-28T08:13:59;2.00;99.90
20566;DHT22;10441;50.884;12.064;2023-02-28T08:16:25;1.70;99.90
20566;DHT22;10441;50.884;12.064;2023-02-28T08:18:53;1.60;99.90
20566;DHT22;10441;50.884;12.064;2023-02-28T08:21:19;1.70;99.90
20566;DHT22;10441;50.884;12.064;2023-02-28T08:23:47;1.80;99.90
20566;DHT22;10441;50.884;12.064;2023-02-28T08:26:14;2.00;99.90
20566;DHT22;10441;50.884;12.064;2023-02-28T08:28:41;2.00;99.90
20566;DHT22;10441;50.884;12.064;2023-02-28T08:31:10;2.40;99.90
20566;DHT22;10441;50.884;12.064;2023-02-28T08:33:37;2.40;99.90
20566;DHT22;10441;50.884;12.064;2023-02-28T08:36:04;2.60;99.90
20566;DHT22;10441;50.884;12.064;2023-02-28T08:38:31;2.60;99.90
20566;DHT22;10441;50.884;12.064;2023-02-28T08:40:58;3.30;99.90
20566;DHT22;10441;50.884;12.064;2023-02-28T08:43:25;3.80;99.90
20566;DHT22;10441;50.884;12.064;2023-02-28T08:45:52;4.20;99.90
20566;DHT22;10441;50.884;12.064;2023-02-28T08:48:21;3.50;99.90
20566;DHT22;10441;50.884;12.064;2023-02-28T08:50:54;3.30;99.90
20566;DHT22;10441;50.884;12.064;2023-02-28T08:53:21;3.60;99.90
20566;DHT22;10441;50.884;12.064;2023-02-28T08:55:54;4.10;99.90
20566;DHT22;10441;50.884;12.064;2023-02-28T08:58:21;3.50;99.90
20566;DHT22;10441;50.884;12.064;2023-02-28T09:00:48;4.00;99.90
20566;DHT22;10441;50.884;12.064;2023-02-28T09:03:16;4.20;99.90
20566;DHT22;10441;50.884;12.064;2023-02-28T09:05:52;5.10;99.90
20566;DHT22;10441;50.884;12.064;2023-02-28T09:08:19;5.10;99.90
20566;DHT22;10441;50.884;12.064;2023-02-28T09:10:48;5.10;99.90
20566;DHT22;10441;50.884;12.064;2023-02-28T09:13:15;4.70;99.90
20566;DHT22;10441;50.884;12.064;2023-02-28T09:15:42;5.10;99.90
20566;DHT22;10441;50.884;12.064;2023-02-28T09:18:09;5.20;99.90
20566;DHT22;10441;50.884;12.064;2023-02-28T09:20:37;4.70;99.90
20566;DHT22;10441;50.884;12.064;2023-02-28T09:23:05;4.30;99.90
20566;DHT22;10441;50.884;12.064;2023-02-28T09:25:32;5.40;99.90
20566;DHT22;10441;50.884;12.064;2023-02-28T09:28:01;4.80;99.90
20566;DHT22;10441;50.884;12.064;2023-02-28T09:30:28;6.60;99.90
20566;DHT22;10441;50.884;12.064;2023-02-28T09:32:56;7.10;99.90
20566;DHT22;10441;50.884;12.064;2023-02-28T09:35:23;6.20;99.90
20566;DHT22;10441;50.884;12.064;2023-02-28T09:37:51;5.70;99.90
20566;DHT22;10441;50.884;12.064;2023-02-28T09:40:19;5.20;99.90
20566;DHT22;10441;50.884;12.064;2023-02-28T09:42:48;4.90;99.90
20566;DHT22;10441;50.884;12.064;2023-02-28T09:45:18;5.40;99.90
20566;DHT22;10441;50.884;12.064;2023-02-28T09:47:46;6.00;99.90
20566;DHT22;10441;50.884;12.064;2023-02-28T09:50:17;5.60;99.90
20566;DHT22;10441;50.884;12.064;2023-02-28T09:52:45;7.30;99.90
20566;DHT22;10441;50.884;12.064;2023-02-28T09:55:18;6.10;99.90
20566;DHT22;10441;50.884;12.064;2023-02-28T09:57:47;5.40;99.90
20566;DHT22;10441;50.884;12.064;2023-02-28T10:00:16;5.50;99.90
20566;DHT22;10441;50.884;12.064;2023-02-28T10:03:04;5.50;99.90
20566;DHT22;10441;50.884;12.064;2023-02-28T10:05:34;6.60;99.90
20566;DHT22;10441;50.884;12.064;2023-02-28T10:08:05;5.40;99.90
20566;DHT22;10441;50.884;12.064;2023-02-28T10:10:37;4.00;99.90
20566;DHT22;10441;50.884;12.064;2023-02-28T10:13:11;5.30;99.90
20566;DHT22;10441;50.884;12.064;2023-02-28T10:15:39;4.60;99.90
20566;DHT22;10441;50.884;12.064;2023-02-28T10:18:16;4.20;99.90
20566;DHT22;10441;50.884;12.064;2023-02-28T10:20:46;3.80;99.90
20566;DHT22;10441;50.884;12.064;2023-02-28T10:23:18;3.80;99.90
20566;DHT22;10441;50.884;12.064;2023-02-28T10:25:47;2.90;99.90
20566;DHT22;10441;50.884;12.064;2023-02-28T10:28:18;3.40;99.90
20566;DHT22;10441;50.884;12.064;2023-02-28T10:30:46;4.40;99.90
20566;DHT22;10441;50.884;12.064;2023-02-28T10:33:16;4.00;99.90
20566;DHT22;10441;50.884;12.064;2023-02-28T10:35:45;5.50;99.90
20566;DHT22;10441;50.884;12.064;2023-02-28T10:38:14;5.40;99.90
20566;DHT22;10441;50.884;12.064;2023-02-28T10:40:41;5.20;99.90
20566;DHT22;10441;50.884;12.064;2023-02-28T10:43:18;5.50;99.90
20566;DHT22;10441;50.884;12.064;2023-02-28T10:45:52;5.10;99.90
20566;DHT22;10441;50.884;12.064;2023-02-28T10:48:26;4.20;99.90
20566;DHT22;10441;50.884;12.064;2023-02-28T10:50:54;5.70;99.90
20566;DHT22;10441;50.884;12.064;2023-02-28T10:53:26;4.80;99.90
20566;DHT22;10441;50.884;12.064;2023-02-28T10:56:00;4.50;99.90
20566;DHT22;10441;50.884;12.064;2023-02-28T10:58:29;4.20;99.90
20566;DHT22;10441;50.884;12.064;2023-02-28T11:00:57;4.50;99.90
20566;DHT22;10441;50.884;12.064;2023-02-28T11:03:25;4.30;99.90
20566;DHT22;10441;50.884;12.064;2023-02-28T11:05:55;4.90;99.90
20566;DHT22;10441;50.884;12.064;2023-02-28T11:08:22;4.50;99.90
20566;DHT22;10441;50.884;12.064;2023-02-28T11:10:53;5.70;99.90
20566;DHT22;10441;50.884;12.064;2023-02-28T11:13:21;4.70;99.90
20566;DHT22;10441;50.884;12.064;2023-02-28T11:15:53;4.30;99.90
20566;DHT22;10441;50.884;12.064;2023-02-28T11:18:22;3.60;99.90
20566;DHT22;10441;50.884;12.064;2023-02-28T11:20:49;4.40;99.90
20566;DHT22;10441;50.884;12.064;2023-02-28T11:23:17;4.90;99.90
20566;DHT22;10441;50.884;12.064;2023-02-28T11:25:46;4.10;99.90
20566;DHT22;10441;50.884;12.064;2023-02-28T11:28:24;4.10;99.90
20566;DHT22;10441;50.884;12.064;2023-02-28T11:31:01;4.00;99.90
20566;DHT22;10441;50.884;12.064;2023-02-28T11:33:29;4.10;99.90
20566;DHT22;10441;50.884;12.064;2023-02-28T11:35:57;3.50;99.90
20566;DHT22;10441;50.884;12.064;2023-02-28T11:38:25;3.40;99.90
20566;DHT22;10441;50.884;12.064;2023-02-28T11:40:56;3.30;99.90
20566;DHT22;10441;50.884;12.064;2023-02-28T11:43:30;3.30;99.90
20566;DHT22;10441;50.884;12.064;2023-02-28T11:46:06;3.30;99.90
20566;DHT22;10441;50.884;12.064;2023-02-28T11:48:40;3.50;99.90
20566;DHT22;10441;50.884;12.064;2023-02-28T11:51:12;3.80;99.90
20566;DHT22;10441;50.884;12.064;2023-02-28T11:53:47;3.70;99.90
20566;DHT22;10441;50.884;12.064;2023-02-28T11:56:18;3.50;99.90
20566;DHT22;10441;50.884;12.064;2023-02-28T11:58:47;4.00;99.90
20566;DHT22;10441;50.884;12.064;2023-02-28T12:01:25;3.90;99.90
20566;DHT22;10441;50.884;12.064;2023-02-28T12:03:58;3.30;99.90
20566;DHT22;10441;50.884;12.064;2023-02-28T12:06:28;3.50;99.90
20566;DHT22;10441;50.884;12.064;2023-02-28T12:09:02;3.10;99.90
20566;DHT22;10441;50.884;12.064;2023-02-28T12:11:35;3.60;99.90
20566;DHT22;10441;50.884;12.064;2023-02-28T12:16:55;3.10;99.90
20566;DHT22;10441;50.884;12.064;2023-02-28T12:19:25;3.70;99.90
20566;DHT22;10441;50.884;12.064;2023-02-28T12:21:57;3.50;99.90
20566;DHT22;10441;50.884;12.064;2023-02-28T12:24:48;3.50;99.90
20566;DHT22;10441;50.884;12.064;2023-02-28T12:27:17;3.70;99.90
20566;DHT22;10441;50.884;12.064;2023-02-28T12:29:47;3.50;99.90
20566;DHT22;10441;50.884;12.064;2023-02-28T12:32:18;3.70;99.90
20566;DHT22;10441;50.884;12.064;2023-02-28T12:34:46;4.50;99.90
20566;DHT22;10441;50.884;12.064;2023-02-28T12:37:14;4.10;99.90
20566;DHT22;10441;50.884;12.064;2023-02-28T12:39:44;4.40;99.90
20566;DHT22;10441;50.884;12.064;2023-02-28T12:42:11;3.70;99.90
20566;DHT22;10441;50.884;12.064;2023-02-28T12:44:40;4.20;99.90
20566;DHT22;10441;50.884;12.064;2023-02-28T12:47:12;4.10;99.90
20566;DHT22;10441;50.884;12.064;2023-02-28T12:49:42;4.10;99.90
20566;DHT22;10441;50.884;12.064;2023-02-28T12:52:12;4.00;99.90
20566;DHT22;10441;50.884;12.064;2023-02-28T12:54:43;4.80;99.90
20566;DHT22;10441;50.884;12.064;2023-02-28T12:57:12;5.40;99.90
20566;DHT22;10441;50.884;12.064;2023-02-28T12:59:48;5.00;99.90
20566;DHT22;10441;50.884;12.064;2023-02-28T13:05:14;5.00;99.90
20566;DHT22;10441;50.884;12.064;2023-02-28T13:10:44;4.40;99.90
20566;DHT22;10441;50.884;12.064;2023-02-28T13:13:14;4.10;99.90
20566;DHT22;10441;50.884;12.064;2023-02-28T13:15:55;4.50;99.90
20566;DHT22;10441;50.884;12.064;2023-02-28T13:18:27;4.10;99.90
20566;DHT22;10441;50.884;12.064;2023-02-28T13:20:56;4.90;99.90
20566;DHT22;10441;50.884;12.064;2023-02-28T13:23:38;4.70;99.90
20566;DHT22;10441;50.884;12.064;2023-02-28T13:26:05;6.00;99.90
20566;DHT22;10441;50.884;12.064;2023-02-28T13:31:33;5.80;99.90
20566;DHT22;10441;50.884;12.064;2023-02-28T13:34:21;5.10;99.90
20566;DHT22;10441;50.884;12.064;2023-02-28T13:36:49;4.90;99.90
20566;DHT22;10441;50.884;12.064;2023-02-28T13:47:30;5.10;99.90
20566;DHT22;10441;50.884;12.064;2023-02-28T13:50:14;4.90;99.90
20566;DHT22;10441;50.884;12.064;2023-02-28T13:52:44;5.00;99.90
20566;DHT22;10441;50.884;12.064;2023-02-28T13:55:21;5.20;99.90
20566;DHT22;10441;50.884;12.064;2023-02-28T13:57:55;4.70;99.90
20566;DHT22;10441;50.884;12.064;2023-02-28T14:00:28;5.20;99.90
20566;DHT22;10441;50.884;12.064;2023-02-28T14:03:06;5.40;99.90
20566;DHT22;10441;50.884;12.064;2023-02-28T14:05:36;6.10;99.90
20566;DHT22;10441;50.884;12.064;2023-02-28T14:08:06;5.50;99.90
20566;DHT22;10441;50.884;12.064;2023-02-28T14:10:41;5.30;99.90
20566;DHT22;10441;50.884;12.064;2023-02-28T14:13:13;5.30;99.90
20566;DHT22;10441;50.884;12.064;2023-02-28T14:15:44;5.00;99.90
20566;DHT22;10441;50.884;12.064;2023-02-28T14:18:22;4.70;99.90
20566;DHT22;10441;50.884;12.064;2023-02-28T14:20:52;5.00;99.90
20566;DHT22;10441;50.884;12.064;2023-02-28T14:23:24;6.00;99.90
20566;DHT22;10441;50.884;12.064;2023-02-28T14:25:59;6.60;99.90
20566;DHT22;10441;50.884;12.064;2023-02-28T14:28:35;5.60;99.90
20566;DHT22;10441;50.884;12.064;2023-02-28T14:31:05;3.90;99.90
20566;DHT22;10441;50.884;12.064;2023-02-28T14:33:53;4.60;99.90
20566;DHT22;10441;50.884;12.064;2023-02-28T14:36:25;4.10;99.90
20566;DHT22;10441;50.884;12.064;2023-02-28T14:38:56;4.90;99.90
20566;DHT22;10441;50.884;12.064;2023-02-28T14:41:29;4.90;99.90
20566;DHT22;10441;50.884;12.064;2023-02-28T14:43:57;4.70;99.90
20566;DHT22;10441;50.884;12.064;2023-02-28T14:46:26;3.80;99.90
20566;DHT22;10441;50.884;12.064;2023-02-28T14:48:55;3.30;99.90
20566;DHT22;10441;50.884;12.064;2023-02-28T14:51:23;3.30;99.90
20566;DHT22;10441;50.884;12.064;2023-02-28T14:53:51;3.00;99.90
20566;DHT22;10441;50.884;12.064;2023-02-28T14:56:22;3.00;99.90
20566;DHT22;10441;50.884;12.064;2023-02-28T14:58:55;3.30;99.90
20566;DHT22;10441;50.884;12.064;2023-02-28T15:01:24;3.10;99.90
20566;DHT22;10441;50.884;12.064;2023-02-28T15:04:01;3.10;99.90
20566;DHT22;10441;50.884;12.064;2023-02-28T15:06:28;2.90;99.90
20566;DHT22;10441;50.884;12.064;2023-02-28T15:09:09;2.90;99.90
20566;DHT22;10441;50.884;12.064;2023-02-28T15:11:38;2.80;99.90
20566;DHT22;10441;50.884;12.064;2023-02-28T15:16:51;2.80;99.90
20566;DHT22;10441;50.884;12.064;2023-02-28T15:19:20;2.70;99.90
20566;DHT22;10441;50.884;12.064;2023-02-28T15:21:48;2.80;99.90
20566;DHT22;10441;50.884;12.064;2023-02-28T15:24:17;2.70;99.90
20566;DHT22;10441;50.884;12.064;2023-02-28T15:26:51;2.60;99.90
20566;DHT22;10441;50.884;12.064;2023-02-28T15:29:20;2.50;99.90
20566;DHT22;10441;50.884;12.064;2023-02-28T15:31:48;2.50;99.90
20566;DHT22;10441;50.884;12.064;2023-02-28T15:34:17;2.50;99.90
20566;DHT22;10441;50.884;12.064;2023-02-28T15:36:49;2.40;99.90
20566;DHT22;10441;50.884;12.064;2023-02-28T15:39:18;2.40;99.90
20566;DHT22;10441;50.884;12.064;2023-02-28T15:41:47;2.40;99.90
20566;DHT22;10441;50.884;12.064;2023-02-28T15:44:25;2.30;99.90
20566;DHT22;10441;50.884;12.064;2023-02-28T15:46:57;2.30;99.90
20566;DHT22;10441;50.884;12.064;2023-02-28T15:49:28;2.30;99.90
20566;DHT22;10441;50.884;12.064;2023-02-28T15:51:57;2.20;99.90
20566;DHT22;10441;50.884;12.064;2023-02-28T15:54:27;2.30;99.90
20566;DHT22;10441;50.884;12.064;2023-02-28T15:56:57;2.30;99.90
20566;DHT22;10441;50.884;12.064;2023-02-28T15:59:32;2.20;99.90
20566;DHT22;10441;50.884;12.064;2023-02-28T16:02:14;2.20;99.90
20566;DHT22;10441;50.884;12.064;2023-02-28T16:05:00;2.20;99.90
20566;DHT22;10441;50.884;12.064;2023-02-28T16:07:29;2.20;99.90
20566;DHT22;10441;50.884;12.064;2023-02-28T16:09:57;2.20;99.90
20566;DHT22;10441;50.884;12.064;2023-02-28T16:12:27;2.00;99.90
20566;DHT22;10441;50.884;12.064;2023-02-28T16:14:57;2.00;99.90